Time;durP1;ratioP1;P1;durP2;ratioP2;P2;SDS_P1;SDS_P2;PMS_P1;PMS_P2;Temp;Humidity;BMP_temperature;BMP_pressure;BME280_temperature;BME280_humidity;BME280_pressure;Samples;Min_cycle;Max_cycle;Signal;HPM_P1;HPM_P2
2022/08/16 00:01:24;;;;;;;;;;;;;;;;;;4999265;28;19917;-67
2022/08/16 00:03:49;;;;;;;;;;;;;;;;;;5003630;28;19913;-67
2022/08/16 00:06:14;;;;;;;;;;;;;;;;;;4998549;28;20024;-67
2022/08/16 00:08:39;;;;;;;;;;;;;;;;;;4999476;28;19909;-67
2022/08/16 00:11:05;;;;;;;;;;;;;;;;;;5010416;28;19984;-66
2022/08/16 00:13:32;;;;;;;;;;;;;;;;;;5011130;28;19921;-67
2022/08/16 00:15:57;;;;;;;;;;;;;;;;;;5007972;28;20293;-67
2022/08/16 00:18:22;;;;;;;;;;;;;;;;;;5011799;28;19921;-67
2022/08/16 00:20:47;;;;;;;;;;;;;;;;;;5010503;28;19914;-67
2022/08/16 00:23:13;;;;;;;;;;;;;;;;;;5004398;28;20378;-67
2022/08/16 00:25:38;;;;;;;;;;;;;;;;;;4988568;28;20025;-67
2022/08/16 00:28:03;;;;;;;;;;;;;;;;;;5016255;28;19914;-67
2022/08/16 00:30:28;;;;;;;;;;;;;;;;;;5005456;28;20378;-67
2022/08/16 00:32:53;;;;;;;;;;;;;;;;;;5002868;28;19944;-68
2022/08/16 00:35:18;;;;;;;;;;;;;;;;;;4999593;28;20016;-67
2022/08/16 00:37:43;;;;;;;;;;;;;;;;;;5001863;28;19914;-67
2022/08/16 00:40:09;;;;;;;;;;;;;;;;;;4996130;28;19914;-67
2022/08/16 00:42:34;;;;;;;;;;;;;;;;;;5001962;28;20024;-66
2022/08/16 00:44:59;;;;;;;;;;;;;;;;;;5007336;28;19917;-67
2022/08/16 00:47:24;;;;;;;;;;;;;;;;;;5002108;28;20282;-67
2022/08/16 00:49:49;;;;;;;;;;;;;;;;;;4988957;28;20255;-67
2022/08/16 00:52:14;;;;;;;;;;;;;;;;;;4995315;28;19940;-67
2022/08/16 00:54:39;;;;;;;;;;;;;;;;;;5009729;28;20049;-67
2022/08/16 00:57:06;;;;;;;;;;;;;;;;;;5010116;28;19921;-67
2022/08/16 00:59:31;;;;;;;;;;;;;;;;;;4994805;28;19917;-67
2022/08/16 01:01:56;;;;;;;;;;;;;;;;;;5012961;28;19917;-65
2022/08/16 01:04:21;;;;;;;;;;;;;;;;;;5004214;28;19992;-67
2022/08/16 01:06:46;;;;;;;;;;;;;;;;;;4992613;28;20021;-66
2022/08/16 01:09:11;;;;;;;;;;;;;;;;;;5011069;28;19909;-67
2022/08/16 01:11:37;;;;;;;;;;;;;;;;;;5010692;28;19913;-66
2022/08/16 01:14:02;;;;;;;;;;;;;;;;;;5012407;28;20004;-67
2022/08/16 01:16:27;;;;;;;;;;;;;;;;;;5009922;28;19928;-67
2022/08/16 01:18:52;;;;;;;;;;;;;;;;;;4999194;28;20381;-67
2022/08/16 01:21:17;;;;;;;;;;;;;;;;;;4991020;28;19914;-67
2022/08/16 01:23:42;;;;;;;;;;;;;;;;;;5003897;28;19929;-67
2022/08/16 01:26:07;;;;;;;;;;;;;;;;;;4998413;28;19979;-66
2022/08/16 01:28:32;;;;;;;;;;;;;;;;;;5012479;28;19914;-67
2022/08/16 01:30:58;;;;;;;;;;;;;;;;;;5009588;28;19914;-68
2022/08/16 01:33:23;;;;;;;;;;;;;;;;;;5012256;28;19917;-67
2022/08/16 01:35:48;;;;;;;;;;;;;;;;;;5000826;28;19914;-67
2022/08/16 01:38:13;;;;;;;;;;;;;;;;;;5012267;28;19968;-67
2022/08/16 01:40:38;;;;;;;;;;;;;;;;;;5011792;28;19961;-67
2022/08/16 01:43:03;;;;;;;;;;;;;;;;;;5001572;28;19917;-67
2022/08/16 01:45:28;;;;;;;;;;;;;;;;;;4991079;28;19922;-67
2022/08/16 01:47:54;;;;;;;;;;;;;;;;;;5010756;28;19913;-68
2022/08/16 01:50:19;;;;;;;;;;;;;;;;;;4990877;28;19917;-67
2022/08/16 01:52:44;;;;;;;;;;;;;;;;;;5004552;28;19913;-67
2022/08/16 01:55:09;;;;;;;;;;;;;;;;;;4999114;28;19913;-67
2022/08/16 01:57:34;;;;;;;;;;;;;;;;;;5008671;28;20366;-67
2022/08/16 01:59:59;;;;;;;;;;;;;;;;;;5014918;28;19921;-66
2022/08/16 02:02:25;;;;;;;;;;;;;;;;;;5013171;28;19922;-67
2022/08/16 02:04:50;;;;;;;;;;;;;;;;;;5012395;28;19960;-67
2022/08/16 02:07:17;;;;;;;;;;;;;;;;;;4995289;28;20420;-67
2022/08/16 02:09:42;;;;;;;;;;;;;;;;;;5001875;28;19914;-67
2022/08/16 02:12:07;;;;;;;;;;;;;;;;;;5004629;28;19917;-67
2022/08/16 02:14:32;;;;;;;;;;;;;;;;;;4998879;28;19972;-67
2022/08/16 02:16:57;;;;;;;;;;;;;;;;;;4997641;28;19918;-67
2022/08/16 02:19:23;;;;;;;;;;;;;;;;;;5013105;28;19913;-68
2022/08/16 02:21:48;;;;;;;;;;;;;;;;;;5013379;28;20188;-68
2022/08/16 02:24:13;;;;;;;;;;;;;;;;;;5014942;28;19937;-68
2022/08/16 02:26:39;;;;;;;;;;;;;;;;;;5013488;28;19917;-68
2022/08/16 02:29:04;;;;;;;;;;;;;;;;;;5013276;28;19975;-67
2022/08/16 02:31:29;;;;;;;;;;;;;;;;;;5015966;28;20031;-67
2022/08/16 02:33:54;;;;;;;;;;;;;;;;;;4998972;28;19917;-67
2022/08/16 02:36:19;;;;;;;;;;;;;;;;;;5010258;28;19981;-67
2022/08/16 02:38:44;;;;;;;;;;;;;;;;;;4996203;28;19960;-67
2022/08/16 02:41:09;;;;;;;;;;;;;;;;;;5002044;28;20349;-67
2022/08/16 02:43:35;;;;;;;;;;;;;;;;;;5014451;28;20452;-67
2022/08/16 02:46:00;;;;;;;;;;;;;;;;;;5001721;28;19920;-67
2022/08/16 02:48:25;;;;;;;;;;;;;;;;;;5000062;28;19917;-67
2022/08/16 02:50:50;;;;;;;;;;;;;;;;;;5012277;28;19920;-67
2022/08/16 02:53:15;;;;;;;;;;;;;;;;;;5012101;28;20282;-66
2022/08/16 02:55:41;;;;;;;;;;;;;;;;;;5008953;28;19914;-67
2022/08/16 02:58:06;;;;;;;;;;;;;;;;;;5003476;28;19921;-67
2022/08/16 03:00:31;;;;;;;;;;;;;;;;;;4994798;28;20377;-67
2022/08/16 03:02:56;;;;;;;;;;;;;;;;;;4993688;28;19921;-67
2022/08/16 03:05:22;;;;;;;;;;;;;;;;;;5004191;28;19913;-68
2022/08/16 03:07:47;;;;;;;;;;;;;;;;;;4994304;28;20358;-66
2022/08/16 03:10:12;;;;;;;;;;;;;;;;;;4991265;28;19914;-66
2022/08/16 03:12:37;;;;;;;;;;;;;;;;;;4998349;28;19969;-66
2022/08/16 03:15:03;;;;;;;;;;;;;;;;;;4997154;28;19961;-68
2022/08/16 03:17:28;;;;;;;;;;;;;;;;;;4999232;28;19940;-67
2022/08/16 03:19:53;;;;;;;;;;;;;;;;;;5014632;28;19910;-67
2022/08/16 03:22:18;;;;;;;;;;;;;;;;;;5008886;28;19929;-67
2022/08/16 03:24:43;;;;;;;;;;;;;;;;;;4989970;28;19914;-67
2022/08/16 03:27:09;;;;;;;;;;;;;;;;;;5002066;28;20393;-66
2022/08/16 03:29:34;;;;;;;;;;;;;;;;;;5012843;28;19921;-66
2022/08/16 03:31:59;;;;;;;;;;;;;;;;;;4999461;28;19922;-66
2022/08/16 03:34:24;;;;;;;;;;;;;;;;;;4998279;28;19918;-66
2022/08/16 03:36:49;;;;;;;;;;;;;;;;;;5011018;28;20012;-65
2022/08/16 03:39:14;;;;;;;;;;;;;;;;;;5005676;28;20310;-67
2022/08/16 03:41:40;;;;;;;;;;;;;;;;;;4995100;28;20050;-68
2022/08/16 03:44:06;;;;;;;;;;;;;;;;;;5001776;28;20370;-68
2022/08/16 03:46:31;;;;;;;;;;;;;;;;;;4995310;28;19910;-68
2022/08/16 03:48:56;;;;;;;;;;;;;;;;;;4992344;28;20278;-67
2022/08/16 03:51:21;;;;;;;;;;;;;;;;;;5007993;28;20390;-66
2022/08/16 03:53:46;;;;;;;;;;;;;;;;;;4997494;28;19924;-67
2022/08/16 03:56:11;;;;;;;;;;;;;;;;;;4999754;28;19920;-68
2022/08/16 03:58:36;;;;;;;;;;;;;;;;;;5006292;28;19914;-66
2022/08/16 04:01:02;;;;;;;;;;;;;;;;;;5006873;28;20356;-67
2022/08/16 04:03:27;;;;;;;;;;;;;;;;;;5007198;28;20289;-68
2022/08/16 04:05:52;;;;;;;;;;;;;;;;;;5012320;28;19910;-67
2022/08/16 04:08:20;;;;;;;;;;;;;;;;;;5003254;28;19941;-68
2022/08/16 04:10:45;;;;;;;;;;;;;;;;;;5007946;28;19921;-68
2022/08/16 04:13:11;;;;;;;;;;;;;;;;;;4996393;28;19914;-66
2022/08/16 04:15:37;;;;;;;;;;;;;;;;;;4996150;28;19914;-67
2022/08/16 04:18:02;;;;;;;;;;;;;;;;;;5000807;28;19949;-67
2022/08/16 04:20:27;;;;;;;;;;;;;;;;;;4987693;28;20400;-67
2022/08/16 04:22:52;;;;;;;;;;;;;;;;;;5009647;28;20392;-67
2022/08/16 04:25:17;;;;;;;;;;;;;;;;;;4995957;28;19940;-67
2022/08/16 04:27:42;;;;;;;;;;;;;;;;;;5010969;28;20008;-67
2022/08/16 04:30:07;;;;;;;;;;;;;;;;;;5010875;28;20381;-65
2022/08/16 04:32:33;;;;;;;;;;;;;;;;;;5010476;28;19913;-67
2022/08/16 04:34:58;;;;;;;;;;;;;;;;;;5009671;28;20333;-66
2022/08/16 04:37:23;;;;;;;;;;;;;;;;;;4994070;28;20526;-67
2022/08/16 04:39:48;;;;;;;;;;;;;;;;;;4997100;28;20477;-67
2022/08/16 04:42:14;;;;;;;;;;;;;;;;;;4996794;28;20397;-66
2022/08/16 04:44:39;;;;;;;;;;;;;;;;;;4994747;28;19921;-67
2022/08/16 04:47:04;;;;;;;;;;;;;;;;;;5003220;28;19914;-67
2022/08/16 04:49:29;;;;;;;;;;;;;;;;;;5003966;28;19910;-66
2022/08/16 04:51:55;;;;;;;;;;;;;;;;;;5002943;28;19956;-65
2022/08/16 04:54:20;;;;;;;;;;;;;;;;;;4986119;28;19921;-67
2022/08/16 04:56:45;;;;;;;;;;;;;;;;;;5003014;28;19913;-68
2022/08/16 04:59:10;;;;;;;;;;;;;;;;;;5007398;28;19909;-67
2022/08/16 05:01:35;;;;;;;;;;;;;;;;;;5011202;28;20008;-68
2022/08/16 05:04:00;;;;;;;;;;;;;;;;;;5004811;28;20364;-67
2022/08/16 05:06:25;;;;;;;;;;;;;;;;;;5009252;28;20476;-67
2022/08/16 05:08:51;;;;;;;;;;;;;;;;;;5003971;28;20378;-68
2022/08/16 05:11:16;;;;;;;;;;;;;;;;;;5008359;28;19921;-67
2022/08/16 05:13:41;;;;;;;;;;;;;;;;;;5006299;28;20286;-67
2022/08/16 05:16:08;;;;;;;;;;;;;;;;;;4991340;28;20045;-68
2022/08/16 05:18:34;;;;;;;;;;;;;;;;;;4996729;28;19918;-67
2022/08/16 05:20:59;;;;;;;;;;;;;;;;;;5001231;28;19917;-68
2022/08/16 05:23:24;;;;;;;;;;;;;;;;;;5000184;28;19929;-67
2022/08/16 05:25:49;;;;;;;;;;;;;;;;;;5006579;28;19917;-67
2022/08/16 05:28:14;;;;;;;;;;;;;;;;;;5011155;28;20012;-67
2022/08/16 05:30:39;;;;;;;;;;;;;;;;;;5011046;28;19913;-67
2022/08/16 05:33:05;;;;;;;;;;;;;;;;;;4992886;28;20280;-67
2022/08/16 05:35:30;;;;;;;;;;;;;;;;;;4990322;28;20329;-68
2022/08/16 05:37:55;;;;;;;;;;;;;;;;;;5008225;28;19918;-67
2022/08/16 05:40:20;;;;;;;;;;;;;;;;;;4990323;28;19987;-67
2022/08/16 05:42:46;;;;;;;;;;;;;;;;;;5004773;28;19940;-67
2022/08/16 05:45:11;;;;;;;;;;;;;;;;;;4989362;28;20445;-66
2022/08/16 05:47:36;;;;;;;;;;;;;;;;;;4997741;28;19953;-67
2022/08/16 05:50:01;;;;;;;;;;;;;;;;;;4988976;28;20270;-69
2022/08/16 05:52:26;;;;;;;;;;;;;;;;;;5007076;28;20332;-66
2022/08/16 05:54:51;;;;;;;;;;;;;;;;;;4996115;28;19913;-67
2022/08/16 05:57:17;;;;;;;;;;;;;;;;;;4992047;28;19975;-67
2022/08/16 05:59:42;;;;;;;;;;;;;;;;;;5008127;28;19933;-63
2022/08/16 06:02:07;;;;;;;;;;;;;;;;;;4997997;28;20358;-69
2022/08/16 06:04:32;;;;;;;;;;;;;;;;;;4997028;28;19929;-67
2022/08/16 06:06:57;;;;;;;;;;;;;;;;;;4993273;28;19988;-69
2022/08/16 06:09:22;;;;;;;;;;;;;;;;;;4997815;28;20377;-70
2022/08/16 06:11:47;;;;;;;;;;;;;;;;;;4998125;28;19917;-66
2022/08/16 06:14:13;;;;;;;;;;;;;;;;;;5022086;28;19921;-69
2022/08/16 06:16:38;;;;;;;;;;;;;;;;;;5007654;28;19913;-68
2022/08/16 06:19:03;;;;;;;;;;;;;;;;;;5008883;28;20378;-69
2022/08/16 06:21:28;;;;;;;;;;;;;;;;;;5004327;28;20394;-62
2022/08/16 06:23:53;;;;;;;;;;;;;;;;;;5004608;28;19956;-68
2022/08/16 06:26:18;;;;;;;;;;;;;;;;;;5012628;28;19932;-66
2022/08/16 06:28:44;;;;;;;;;;;;;;;;;;5008286;28;20369;-65
2022/08/16 06:31:09;;;;;;;;;;;;;;;;;;5008251;28;20294;-68
2022/08/16 06:33:34;;;;;;;;;;;;;;;;;;4997033;28;20385;-69
2022/08/16 06:35:59;;;;;;;;;;;;;;;;;;4996796;28;19925;-69
2022/08/16 06:38:24;;;;;;;;;;;;;;;;;;5008142;28;19918;-69
2022/08/16 06:40:50;;;;;;;;;;;;;;;;;;5007871;28;19977;-67
2022/08/16 06:43:15;;;;;;;;;;;;;;;;;;5008101;28;19932;-69
2022/08/16 06:45:41;;;;;;;;;;;;;;;;;;5007823;28;19992;-64
2022/08/16 06:48:06;;;;;;;;;;;;;;;;;;5008944;28;20068;-72
2022/08/16 06:50:32;;;;;;;;;;;;;;;;;;4987734;28;20034;-68
2022/08/16 06:52:57;;;;;;;;;;;;;;;;;;5008304;28;19936;-71
2022/08/16 06:55:22;;;;;;;;;;;;;;;;;;5013676;28;19968;-69
2022/08/16 06:57:47;;;;;;;;;;;;;;;;;;5012926;28;19917;-70
2022/08/16 07:00:12;;;;;;;;;;;;;;;;;;4993323;28;20281;-71
2022/08/16 07:02:38;;;;;;;;;;;;;;;;;;4986839;28;19929;-66
2022/08/16 07:05:03;;;;;;;;;;;;;;;;;;5012841;28;19917;-71
2022/08/16 07:07:28;;;;;;;;;;;;;;;;;;5014286;28;20326;-68
2022/08/16 07:09:53;;;;;;;;;;;;;;;;;;5010709;28;19914;-71
2022/08/16 07:12:19;;;;;;;;;;;;;;;;;;5010212;28;19939;-71
2022/08/16 07:14:44;;;;;;;;;;;;;;;;;;4993616;28;19920;-72
2022/08/16 07:17:09;;;;;;;;;;;;;;;;;;4977803;28;20071;-69
2022/08/16 07:19:34;;;;;;;;;;;;;;;;;;5007396;28;20286;-69
2022/08/16 07:22:02;;;;;;;;;;;;;;;;;;5002244;28;19928;-76
2022/08/16 07:24:27;;;;;;;;;;;;;;;;;;5010243;28;19991;-69
2022/08/16 07:26:53;;;;;;;;;;;;;;;;;;5005808;28;20421;-71
2022/08/16 07:29:18;;;;;;;;;;;;;;;;;;4992707;28;19917;-71
2022/08/16 07:31:43;;;;;;;;;;;;;;;;;;5005839;28;19916;-70
2022/08/16 07:34:08;;;;;;;;;;;;;;;;;;5007481;28;19917;-72
2022/08/16 07:36:34;;;;;;;;;;;;;;;;;;5009966;28;19909;-71
2022/08/16 07:38:59;;;;;;;;;;;;;;;;;;5006808;28;19925;-69
2022/08/16 07:41:24;;;;;;;;;;;;;;;;;;5009996;28;19913;-69
2022/08/16 07:43:49;;;;;;;;;;;;;;;;;;5008464;28;20051;-70
2022/08/16 07:46:14;;;;;;;;;;;;;;;;;;4993391;28;19960;-67
2022/08/16 07:48:39;;;;;;;;;;;;;;;;;;5003556;28;19921;-62
2022/08/16 07:51:05;;;;;;;;;;;;;;;;;;5010049;28;19913;-68
2022/08/16 07:53:30;;;;;;;;;;;;;;;;;;5011079;28;19996;-67
2022/08/16 07:55:55;;;;;;;;;;;;;;;;;;5012266;28;19914;-68
2022/08/16 07:58:20;;;;;;;;;;;;;;;;;;5008886;28;20011;-68
2022/08/16 08:00:45;;;;;;;;;;;;;;;;;;5012217;28;19917;-67
2022/08/16 08:03:11;;;;;;;;;;;;;;;;;;5013303;28;20269;-65
2022/08/16 08:05:36;;;;;;;;;;;;;;;;;;5009841;28;19917;-65
2022/08/16 08:08:01;;;;;;;;;;;;;;;;;;5006698;28;19960;-65
2022/08/16 08:10:27;;;;;;;;;;;;;;;;;;5003151;28;19953;-66
2022/08/16 08:12:52;;;;;;;;;;;;;;;;;;4987820;28;20352;-66
2022/08/16 08:15:19;;;;;;;;;;;;;;;;;;5012299;28;19976;-67
2022/08/16 08:17:44;;;;;;;;;;;;;;;;;;4994129;28;20329;-67
2022/08/16 08:20:09;;;;;;;;;;;;;;;;;;5000925;28;20286;-67
2022/08/16 08:22:35;;;;;;;;;;;;;;;;;;4992113;28;19928;-67
2022/08/16 08:25:01;;;;;;;;;;;;;;;;;;5009470;28;20004;-66
2022/08/16 08:27:26;;;;;;;;;;;;;;;;;;5003701;28;19918;-67
2022/08/16 08:29:52;;;;;;;;;;;;;;;;;;5010043;28;19920;-67
2022/08/16 08:32:20;;;;;;;;;;;;;;;;;;5008007;28;19917;-66
2022/08/16 08:34:45;;;;;;;;;;;;;;;;;;5010602;28;19913;-67
2022/08/16 08:37:10;;;;;;;;;;;;;;;;;;5018901;28;19920;-67
2022/08/16 08:39:37;;;;;;;;;;;;;;;;;;5023877;28;19917;-66
2022/08/16 08:42:02;;;;;;;;;;;;;;;;;;5007339;28;20481;-66
2022/08/16 08:44:27;;;;;;;;;;;;;;;;;;5032314;28;20000;-65
2022/08/16 08:46:56;;;;;;;;;;;;;;;;;;5000875;28;19929;-66
2022/08/16 08:49:21;;;;;;;;;;;;;;;;;;5012163;28;20395;-67
2022/08/16 08:51:46;;;;;;;;;;;;;;;;;;5013393;28;19964;-66
2022/08/16 08:54:13;;;;;;;;;;;;;;;;;;4998326;28;19979;-65
2022/08/16 08:56:40;;;;;;;;;;;;;;;;;;5016775;28;19920;-66
2022/08/16 08:59:05;;;;;;;;;;;;;;;;;;5024629;28;19909;-67
2022/08/16 09:01:31;;;;;;;;;;;;;;;;;;4988600;28;19924;-67
2022/08/16 09:03:56;;;;;;;;;;;;;;;;;;5027339;28;20003;-66
2022/08/16 09:06:21;;;;;;;;;;;;;;;;;;5014864;28;20008;-65
2022/08/16 09:08:46;;;;;;;;;;;;;;;;;;5007720;28;19953;-66
2022/08/16 09:11:11;;;;;;;;;;;;;;;;;;5013760;28;20298;-65
2022/08/16 09:13:37;;;;;;;;;;;;;;;;;;4998318;28;19955;-66
2022/08/16 09:16:02;;;;;;;;;;;;;;;;;;4990276;28;19960;-65
2022/08/16 09:18:28;;;;;;;;;;;;;;;;;;4995512;28;19924;-66
2022/08/16 09:20:54;;;;;;;;;;;;;;;;;;5020609;28;20016;-66
2022/08/16 09:23:19;;;;;;;;;;;;;;;;;;5005020;28;20020;-66
2022/08/16 09:25:45;;;;;;;;;;;;;;;;;;5001898;28;19965;-66
2022/08/16 09:28:10;;;;;;;;;;;;;;;;;;5008078;28;20007;-65
2022/08/16 09:30:35;;;;;;;;;;;;;;;;;;4987173;28;19937;-66
2022/08/16 09:33:00;;;;;;;;;;;;;;;;;;5004595;28;19990;-65
2022/08/16 09:35:25;;;;;;;;;;;;;;;;;;4985095;28;19913;-65
2022/08/16 09:37:50;;;;;;;;;;;;;;;;;;4994166;28;19997;-66
2022/08/16 09:40:16;;;;;;;;;;;;;;;;;;5020297;28;19913;-65
2022/08/16 09:42:41;;;;;;;;;;;;;;;;;;5015839;28;19940;-66
2022/08/16 09:45:07;;;;;;;;;;;;;;;;;;5021267;28;20361;-67
2022/08/16 09:47:32;;;;;;;;;;;;;;;;;;5023739;28;19914;-65
2022/08/16 09:49:57;;;;;;;;;;;;;;;;;;5007241;28;20301;-66
2022/08/16 09:52:23;;;;;;;;;;;;;;;;;;5011738;28;20007;-65
2022/08/16 09:54:48;;;;;;;;;;;;;;;;;;5017081;28;19921;-65
2022/08/16 09:57:13;;;;;;;;;;;;;;;;;;5028550;28;19964;-66
2022/08/16 09:59:38;;;;;;;;;;;;;;;;;;5004852;28;19917;-66
2022/08/16 10:02:03;;;;;;;;;;;;;;;;;;5003517;28;19960;-66
2022/08/16 10:04:28;;;;;;;;;;;;;;;;;;5007352;28;19914;-66
2022/08/16 10:06:53;;;;;;;;;;;;;;;;;;5008682;28;19982;-65
2022/08/16 10:09:19;;;;;;;;;;;;;;;;;;5022170;28;19937;-66
2022/08/16 10:14:29;;;;;;;;;;;;;;;;;;4995278;28;19928;-66
2022/08/16 10:16:54;;;;;;;;;;;;;;;;;;4998008;28;19918;-66
2022/08/16 10:19:19;;;;;;;;;;;;;;;;;;4998664;28;19929;-67
2022/08/16 10:21:45;;;;;;;;;;;;;;;;;;4979368;28;20389;-67
2022/08/16 10:24:10;;;;;;;;;;;;;;;;;;4986440;28;19970;-59
2022/08/16 10:26:35;;;;;;;;;;;;;;;;;;5004955;28;19973;-66
2022/08/16 10:29:00;;;;;;;;;;;;;;;;;;5006513;28;19914;-65
2022/08/16 10:31:26;;;;;;;;;;;;;;;;;;5005119;28;20462;-65
2022/08/16 10:33:51;;;;;;;;;;;;;;;;;;5002296;28;19913;-65
2022/08/16 10:36:16;;;;;;;;;;;;;;;;;;5004490;28;19933;-66
2022/08/16 10:38:41;;;;;;;;;;;;;;;;;;5003917;28;19913;-65
2022/08/16 10:41:06;;;;;;;;;;;;;;;;;;4980442;28;19914;-66
2022/08/16 10:43:31;;;;;;;;;;;;;;;;;;4991578;28;19918;-66
2022/08/16 10:45:57;;;;;;;;;;;;;;;;;;4987066;28;20012;-66
2022/08/16 10:48:22;;;;;;;;;;;;;;;;;;4983998;28;19914;-66
2022/08/16 10:50:47;;;;;;;;;;;;;;;;;;4994407;28;19917;-66
2022/08/16 10:53:12;;;;;;;;;;;;;;;;;;4961610;28;19954;-66
2022/08/16 10:55:37;;;;;;;;;;;;;;;;;;4988077;28;19966;-66
2022/08/16 10:58:02;;;;;;;;;;;;;;;;;;4994982;28;19917;-66
2022/08/16 11:00:28;;;;;;;;;;;;;;;;;;4992768;28;19918;-65
2022/08/16 11:02:53;;;;;;;;;;;;;;;;;;4993166;28;20382;-66
2022/08/16 11:05:18;;;;;;;;;;;;;;;;;;4991242;28;20374;-65
2022/08/16 11:07:43;;;;;;;;;;;;;;;;;;4987820;28;19972;-66
2022/08/16 11:10:08;;;;;;;;;;;;;;;;;;4988622;28;19910;-66
2022/08/16 11:12:33;;;;;;;;;;;;;;;;;;4994618;28;19945;-65
2022/08/16 11:14:58;;;;;;;;;;;;;;;;;;4994721;28;19916;-64
2022/08/16 11:17:23;;;;;;;;;;;;;;;;;;5003043;28;19917;-65
2022/08/16 11:19:49;;;;;;;;;;;;;;;;;;5012206;28;19914;-66
2022/08/16 11:22:14;;;;;;;;;;;;;;;;;;4999099;28;20407;-67
2022/08/16 11:24:39;;;;;;;;;;;;;;;;;;5011639;28;20281;-66
2022/08/16 11:27:05;;;;;;;;;;;;;;;;;;4988299;28;20358;-66
2022/08/16 11:29:30;;;;;;;;;;;;;;;;;;5006115;28;20281;-68
2022/08/16 11:31:55;;;;;;;;;;;;;;;;;;4988975;28;19914;-66
2022/08/16 11:34:20;;;;;;;;;;;;;;;;;;5011814;28;19914;-65
2022/08/16 11:36:45;;;;;;;;;;;;;;;;;;5000472;28;20046;-64
2022/08/16 11:39:10;;;;;;;;;;;;;;;;;;5011861;28;19917;-63
2022/08/16 11:41:37;;;;;;;;;;;;;;;;;;5012439;28;19933;-64
2022/08/16 11:44:02;;;;;;;;;;;;;;;;;;5011143;28;19964;-63
2022/08/16 11:46:27;;;;;;;;;;;;;;;;;;5013345;28;19913;-63
2022/08/16 11:48:53;;;;;;;;;;;;;;;;;;5012000;28;19996;-64
2022/08/16 11:51:18;;;;;;;;;;;;;;;;;;4998636;28;19922;-63
2022/08/16 11:53:43;;;;;;;;;;;;;;;;;;5012094;28;19928;-64
2022/08/16 11:56:09;;;;;;;;;;;;;;;;;;5012376;28;19917;-64
2022/08/16 11:58:34;;;;;;;;;;;;;;;;;;5013346;28;20361;-63
2022/08/16 12:00:59;;;;;;;;;;;;;;;;;;5012103;28;20398;-63
2022/08/16 12:03:25;;;;;;;;;;;;;;;;;;5008789;28;19960;-64
2022/08/16 12:05:50;;;;;;;;;;;;;;;;;;5004454;28;19983;-63
2022/08/16 12:08:15;;;;;;;;;;;;;;;;;;5013151;28;19913;-64
2022/08/16 12:10:40;;;;;;;;;;;;;;;;;;5011016;28;19936;-64
2022/08/16 12:13:06;;;;;;;;;;;;;;;;;;5013821;28;19960;-64
2022/08/16 12:15:31;;;;;;;;;;;;;;;;;;5008561;28;20020;-62
2022/08/16 12:17:56;;;;;;;;;;;;;;;;;;5011010;28;19917;-64
2022/08/16 12:20:21;;;;;;;;;;;;;;;;;;5007753;28;19921;-64
2022/08/16 12:22:46;;;;;;;;;;;;;;;;;;5004725;28;20020;-63
2022/08/16 12:25:11;;;;;;;;;;;;;;;;;;5010332;28;19925;-63
2022/08/16 12:27:37;;;;;;;;;;;;;;;;;;5004456;28;19937;-62
2022/08/16 12:30:02;;;;;;;;;;;;;;;;;;5010682;28;19913;-62
2022/08/16 12:32:27;;;;;;;;;;;;;;;;;;5010427;28;20064;-64
2022/08/16 12:34:52;;;;;;;;;;;;;;;;;;5002409;28;19920;-64
2022/08/16 12:37:18;;;;;;;;;;;;;;;;;;5015050;28;20196;-64
2022/08/16 12:39:43;;;;;;;;;;;;;;;;;;5014727;28;20284;-63
2022/08/16 12:42:08;;;;;;;;;;;;;;;;;;5005111;28;19917;-63
2022/08/16 12:44:33;;;;;;;;;;;;;;;;;;5001258;28;19914;-63
2022/08/16 12:49:42;;;;;;;;;;;;;;;;;;5016127;28;19925;-65
2022/08/16 12:52:07;;;;;;;;;;;;;;;;;;5006406;28;19914;-65
2022/08/16 12:54:32;;;;;;;;;;;;;;;;;;5001051;28;19914;-64
2022/08/16 12:56:58;;;;;;;;;;;;;;;;;;5007367;28;19914;-63
2022/08/16 12:59:23;;;;;;;;;;;;;;;;;;5013079;28;19913;-63
2022/08/16 13:01:48;;;;;;;;;;;;;;;;;;5008546;28;19914;-64
2022/08/16 13:04:13;;;;;;;;;;;;;;;;;;5010102;28;19917;-67
2022/08/16 13:06:39;;;;;;;;;;;;;;;;;;5009046;28;19996;-65
2022/08/16 13:09:18;;;;;;;;;;;;;;;;;;5008491;28;19913;-64
2022/08/16 13:11:47;;;;;;;;;;;;;;;;;;5008638;28;19914;-61
2022/08/16 13:14:12;;;;;;;;;;;;;;;;;;5006843;28;19960;-64
2022/08/16 13:16:38;;;;;;;;;;;;;;;;;;5010013;28;20371;-61
2022/08/16 13:19:03;;;;;;;;;;;;;;;;;;4993333;28;19913;-61
2022/08/16 13:21:28;;;;;;;;;;;;;;;;;;4989192;28;19941;-61
2022/08/16 13:23:53;;;;;;;;;;;;;;;;;;5007210;28;19927;-62
2022/08/16 13:26:18;;;;;;;;;;;;;;;;;;5009085;28;19952;-61
2022/08/16 13:28:43;;;;;;;;;;;;;;;;;;5005241;28;19933;-60
2022/08/16 13:31:08;;;;;;;;;;;;;;;;;;5008598;28;19917;-61
2022/08/16 13:33:36;;;;;;;;;;;;;;;;;;5010531;28;21573;-60
2022/08/16 13:36:01;;;;;;;;;;;;;;;;;;5009293;28;20552;-62
2022/08/16 13:38:27;;;;;;;;;;;;;;;;;;5011479;28;20004;-67
2022/08/16 13:40:52;;;;;;;;;;;;;;;;;;5010416;28;19913;-62
2022/08/16 13:43:18;;;;;;;;;;;;;;;;;;5009792;28;19945;-60
2022/08/16 13:45:43;;;;;;;;;;;;;;;;;;5007515;28;19921;-60
2022/08/16 13:48:08;;;;;;;;;;;;;;;;;;5010642;28;20381;-60
2022/08/16 13:50:33;;;;;;;;;;;;;;;;;;4988945;28;19964;-59
2022/08/16 13:52:59;;;;;;;;;;;;;;;;;;5000477;28;19953;-59
2022/08/16 13:55:25;;;;;;;;;;;;;;;;;;5008734;28;19920;-60
2022/08/16 13:57:50;;;;;;;;;;;;;;;;;;5012031;28;20305;-60
2022/08/16 14:00:15;;;;;;;;;;;;;;;;;;5011052;28;20305;-61
2022/08/16 14:02:40;;;;;;;;;;;;;;;;;;5014454;28;20016;-59
2022/08/16 14:05:05;;;;;;;;;;;;;;;;;;5016636;28;20369;-59
2022/08/16 14:07:31;;;;;;;;;;;;;;;;;;5010295;28;19979;-60
2022/08/16 14:09:56;;;;;;;;;;;;;;;;;;5015753;28;19913;-60
2022/08/16 14:12:21;;;;;;;;;;;;;;;;;;5009482;28;19946;-60
2022/08/16 14:14:46;;;;;;;;;;;;;;;;;;4987395;28;19913;-60
2022/08/16 14:17:11;;;;;;;;;;;;;;;;;;5012896;28;21286;-59
2022/08/16 14:19:36;;;;;;;;;;;;;;;;;;5013489;28;19966;-59
2022/08/16 14:22:02;;;;;;;;;;;;;;;;;;5008300;28;19944;-60
2022/08/16 14:24:27;;;;;;;;;;;;;;;;;;5009834;28;19917;-61
2022/08/16 14:26:52;;;;;;;;;;;;;;;;;;5007011;28;19917;-60
2022/08/16 14:29:17;;;;;;;;;;;;;;;;;;5003433;28;19948;-59
2022/08/16 14:31:43;;;;;;;;;;;;;;;;;;5003859;28;19920;-59
2022/08/16 14:34:09;;;;;;;;;;;;;;;;;;5001057;28;19969;-60
2022/08/16 14:36:35;;;;;;;;;;;;;;;;;;5007258;28;20396;-60
2022/08/16 14:39:00;;;;;;;;;;;;;;;;;;5003510;28;19925;-60
2022/08/16 14:41:25;;;;;;;;;;;;;;;;;;5011167;28;19957;-61
2022/08/16 14:43:50;;;;;;;;;;;;;;;;;;5005663;28;19918;-60
2022/08/16 14:46:15;;;;;;;;;;;;;;;;;;5002870;28;19914;-59
2022/08/16 14:48:41;;;;;;;;;;;;;;;;;;5006572;28;19917;-60
2022/08/16 14:51:06;;;;;;;;;;;;;;;;;;5007436;28;19925;-61
2022/08/16 14:53:31;;;;;;;;;;;;;;;;;;5006213;28;19921;-60
2022/08/16 14:55:57;;;;;;;;;;;;;;;;;;5009241;28;19914;-60
2022/08/16 14:58:23;;;;;;;;;;;;;;;;;;5010229;28;19914;-61
2022/08/16 15:00:48;;;;;;;;;;;;;;;;;;5004963;28;19917;-59
2022/08/16 15:03:13;;;;;;;;;;;;;;;;;;5013614;28;19972;-60
2022/08/16 15:05:39;;;;;;;;;;;;;;;;;;5010671;28;20362;-61
2022/08/16 15:08:04;;;;;;;;;;;;;;;;;;5012672;28;20409;-60
2022/08/16 15:10:29;;;;;;;;;;;;;;;;;;5010369;28;20000;-60
2022/08/16 15:12:57;;;;;;;;;;;;;;;;;;5016077;28;19918;-60
2022/08/16 15:15:22;;;;;;;;;;;;;;;;;;4993826;28;19952;-61
2022/08/16 15:17:47;;;;;;;;;;;;;;;;;;5023863;28;19971;-58
2022/08/16 15:20:12;;;;;;;;;;;;;;;;;;5021561;28;19914;-60
2022/08/16 15:22:37;;;;;;;;;;;;;;;;;;5011931;28;19968;-60
2022/08/16 15:25:03;;;;;;;;;;;;;;;;;;5024522;28;19936;-60
2022/08/16 15:27:28;;;;;;;;;;;;;;;;;;5012001;28;19917;-61
2022/08/16 15:29:54;;;;;;;;;;;;;;;;;;5023754;28;19988;-60
2022/08/16 15:32:19;;;;;;;;;;;;;;;;;;5017954;28;20060;-60
2022/08/16 15:34:44;;;;;;;;;;;;;;;;;;5017350;28;19980;-61
2022/08/16 15:37:09;;;;;;;;;;;;;;;;;;5019408;28;19913;-60
2022/08/16 15:39:34;;;;;;;;;;;;;;;;;;5021261;28;20007;-60
2022/08/16 15:42:00;;;;;;;;;;;;;;;;;;5016293;28;19929;-60
2022/08/16 15:44:25;;;;;;;;;;;;;;;;;;5014067;28;19992;-60
2022/08/16 15:46:50;;;;;;;;;;;;;;;;;;5014596;28;19913;-60
2022/08/16 15:49:16;;;;;;;;;;;;;;;;;;5014722;28;19992;-61
2022/08/16 15:51:41;;;;;;;;;;;;;;;;;;5010709;28;19925;-61
2022/08/16 15:54:06;;;;;;;;;;;;;;;;;;5014284;28;20150;-61
2022/08/16 15:56:33;;;;;;;;;;;;;;;;;;5014242;28;19910;-60
2022/08/16 15:58:58;;;;;;;;;;;;;;;;;;5013473;28;19914;-61
2022/08/16 16:01:23;;;;;;;;;;;;;;;;;;5013704;28;19917;-61
2022/08/16 16:03:49;;;;;;;;;;;;;;;;;;5016622;28;20382;-62
2022/08/16 16:06:19;;;;;;;;;;;;;;;;;;5005201;28;19990;-62
2022/08/16 16:08:44;;;;;;;;;;;;;;;;;;5008272;28;19914;-62
2022/08/16 16:11:09;;;;;;;;;;;;;;;;;;5003718;28;19917;-61
2022/08/16 16:13:34;;;;;;;;;;;;;;;;;;5009609;28;20004;-61
2022/08/16 16:16:01;;;;;;;;;;;;;;;;;;5012542;28;19940;-62
2022/08/16 16:18:28;;;;;;;;;;;;;;;;;;5013042;28;19917;-61
2022/08/16 16:20:53;;;;;;;;;;;;;;;;;;5012869;28;20395;-61
2022/08/16 16:23:20;;;;;;;;;;;;;;;;;;5008598;28;20026;-61
2022/08/16 16:25:45;;;;;;;;;;;;;;;;;;5008991;28;20321;-61
2022/08/16 16:28:10;;;;;;;;;;;;;;;;;;5011715;28;19920;-62
2022/08/16 16:30:35;;;;;;;;;;;;;;;;;;5012465;28;19914;-61
2022/08/16 16:33:01;;;;;;;;;;;;;;;;;;5013665;28;19996;-61
2022/08/16 16:35:26;;;;;;;;;;;;;;;;;;5010276;28;19989;-61
2022/08/16 16:37:54;;;;;;;;;;;;;;;;;;4986334;28;19968;-62